Terminal Aerodrome Forecast
Issued by NWS

Home | Current Version | Previous Version | Text Only | Print | Product List | Glossary On
Versions: 1 2 3 4 5 6 7 8 9 10 11 12 13 14 15 16
000
FTAK31 PAJN 290906 AAB
TAFAKT
TAF AMD
PAKT 290906Z 2909/3006 15009KT P6SM VCSH OVC012
      TEMPO 2909/2912 4SM -DZ BR OVC008
     FM291200 14007KT P6SM BKN010 BKN070
     FM292000 13008KT P6SM SCT015 BKN060
     FM300000 13008KT P6SM SCT025 BKN180
      AMD LTD TO CLD VIS AND WIND 2907/2915=

USA.gov is the U.S. government's official web portal to all federal, state and local government web resources and services.